sensor_id;sensor_type;location;lat;lon;timestamp;P1;P2;P0
53698;PMS7003;39591;53.952;27.612;2022-10-16T00:03:56;9.9;7.7;6.1
53698;PMS7003;39591;53.952;27.612;2022-10-16T00:08:38;9.4;7;5.4
53698;PMS7003;39591;53.952;27.612;2022-10-16T00:14:19;10.4;8.2;6.3
53698;PMS7003;39591;53.952;27.612;2022-10-16T00:19:19;9.7;8.2;6.5
53698;PMS7003;39591;53.952;27.612;2022-10-16T00:24:02;9.4;8;6.4
53698;PMS7003;39591;53.952;27.612;2022-10-16T00:29:19;9.5;8.1;6.4
53698;PMS7003;39591;53.952;27.612;2022-10-16T00:34:13;9.1;7.6;6.3
53698;PMS7003;39591;53.952;27.612;2022-10-16T00:39:05;10.1;8.8;6.7
53698;PMS7003;39591;53.952;27.612;2022-10-16T00:43:56;9.7;7.8;6.2
53698;PMS7003;39591;53.952;27.612;2022-10-16T00:49:00;10.3;8.6;7.1
53698;PMS7003;39591;53.952;27.612;2022-10-16T00:53:37;8.9;8;6.4
53698;PMS7003;39591;53.952;27.612;2022-10-16T00:58:49;9.8;8;6.3
53698;PMS7003;39591;53.952;27.612;2022-10-16T01:03:45;8.5;7;5.6
53698;PMS7003;39591;53.952;27.612;2022-10-16T01:09:19;10.1;8.1;6.4
53698;PMS7003;39591;53.952;27.612;2022-10-16T01:14:09;10.1;7.7;6.4
53698;PMS7003;39591;53.952;27.612;2022-10-16T01:19:01;9.3;7.9;6
53698;PMS7003;39591;53.952;27.612;2022-10-16T01:24:03;9.3;7.3;6
53698;PMS7003;39591;53.952;27.612;2022-10-16T01:29:01;10.2;7.9;6.2
53698;PMS7003;39591;53.952;27.612;2022-10-16T01:33:38;10.2;8.1;6.3
53698;PMS7003;39591;53.952;27.612;2022-10-16T01:38:49;9.7;7.8;6
53698;PMS7003;39591;53.952;27.612;2022-10-16T01:43:48;11;8.3;6.2
53698;PMS7003;39591;53.952;27.612;2022-10-16T01:48:51;9.3;7.5;5.7
53698;PMS7003;39591;53.952;27.612;2022-10-16T01:54:09;10.8;8.1;6.3
53698;PMS7003;39591;53.952;27.612;2022-10-16T01:59:00;11;8.2;6.3
53698;PMS7003;39591;53.952;27.612;2022-10-16T02:04:15;9.3;8.1;6.5
53698;PMS7003;39591;53.952;27.612;2022-10-16T02:09:05;11.4;8.8;6.6
53698;PMS7003;39591;53.952;27.612;2022-10-16T02:13:57;9.8;7.5;5.7
53698;PMS7003;39591;53.952;27.612;2022-10-16T02:19:07;9.6;8;6.3
53698;PMS7003;39591;53.952;27.612;2022-10-16T02:24:18;11.2;8.3;6.4
53698;PMS7003;39591;53.952;27.612;2022-10-16T02:28:38;10.2;8;6.7
53698;PMS7003;39591;53.952;27.612;2022-10-16T02:33:49;9.2;7.6;6.2
53698;PMS7003;39591;53.952;27.612;2022-10-16T02:38:47;10;8.3;6.8
53698;PMS7003;39591;53.952;27.612;2022-10-16T02:44:17;11.1;9.2;7
53698;PMS7003;39591;53.952;27.612;2022-10-16T02:49:13;10.1;8.1;6.2
53698;PMS7003;39591;53.952;27.612;2022-10-16T02:54:21;9.7;8.6;6.9
53698;PMS7003;39591;53.952;27.612;2022-10-16T02:58:59;11.3;9.8;7.2
53698;PMS7003;39591;53.952;27.612;2022-10-16T03:04:13;12.4;10.5;8.3
53698;PMS7003;39591;53.952;27.612;2022-10-16T03:09:23;11.9;9.6;7
53698;PMS7003;39591;53.952;27.612;2022-10-16T03:13:59;10.6;8.3;6.4
53698;PMS7003;39591;53.952;27.612;2022-10-16T03:18:37;11.4;9.5;7.5
53698;PMS7003;39591;53.952;27.612;2022-10-16T03:23:49;10.3;8.3;6.6
53698;PMS7003;39591;53.952;27.612;2022-10-16T03:29:01;10.2;8.6;6.7
53698;PMS7003;39591;53.952;27.612;2022-10-16T03:34:01;10.1;8.9;6.6
53698;PMS7003;39591;53.952;27.612;2022-10-16T03:38:59;11.4;9.2;7.4
53698;PMS7003;39591;53.952;27.612;2022-10-16T03:44:23;10.2;7.9;6.6
53698;PMS7003;39591;53.952;27.612;2022-10-16T03:49:23;9.2;7.6;6.2
53698;PMS7003;39591;53.952;27.612;2022-10-16T03:53:37;10.8;9;7.3
53698;PMS7003;39591;53.952;27.612;2022-10-16T03:59:25;12.4;10.6;8.3
53698;PMS7003;39591;53.952;27.612;2022-10-16T04:04:23;12.5;10.3;7.9
53698;PMS7003;39591;53.952;27.612;2022-10-16T04:09:21;11.9;9.8;7.9
53698;PMS7003;39591;53.952;27.612;2022-10-16T04:13:37;12.2;10.2;7.7
53698;PMS7003;39591;53.952;27.612;2022-10-16T04:18:37;11.6;10;8.1
53698;PMS7003;39591;53.952;27.612;2022-10-16T04:24:25;11.6;9.8;8
53698;PMS7003;39591;53.952;27.612;2022-10-16T04:29:13;13;9.7;7.5
53698;PMS7003;39591;53.952;27.612;2022-10-16T04:34:03;13.1;9.9;8
53698;PMS7003;39591;53.952;27.612;2022-10-16T04:39:16;10.2;8.2;6.4
53698;PMS7003;39591;53.952;27.612;2022-10-16T04:44:11;11;9.4;7.7
53698;PMS7003;39591;53.952;27.612;2022-10-16T04:49:01;10.2;8.3;6.5
53698;PMS7003;39591;53.952;27.612;2022-10-16T04:54:11;12.9;9.8;8
53698;PMS7003;39591;53.952;27.612;2022-10-16T04:59:25;10.1;8.6;6.6
53698;PMS7003;39591;53.952;27.612;2022-10-16T05:03:37;10.8;9.4;7.8
53698;PMS7003;39591;53.952;27.612;2022-10-16T05:09:02;12.5;10.2;8
53698;PMS7003;39591;53.952;27.612;2022-10-16T05:14:25;11.4;9;6.9
53698;PMS7003;39591;53.952;27.612;2022-10-16T05:19:15;12.3;9.7;7.7
53698;PMS7003;39591;53.952;27.612;2022-10-16T05:24:25;12.2;10.4;8
53698;PMS7003;39591;53.952;27.612;2022-10-16T05:29:02;10.9;9.2;6.9
53698;PMS7003;39591;53.952;27.612;2022-10-16T05:34:15;10.8;9.3;7.7
53698;PMS7003;39591;53.952;27.612;2022-10-16T05:39:25;12;9.9;8.1
53698;PMS7003;39591;53.952;27.612;2022-10-16T05:44:13;13.6;10.3;8.2
53698;PMS7003;39591;53.952;27.612;2022-10-16T05:48:45;13.8;11.2;8.9
53698;PMS7003;39591;53.952;27.612;2022-10-16T05:53:52;13.7;11.4;8.9
53698;PMS7003;39591;53.952;27.612;2022-10-16T05:58:53;13.2;10.7;7.9
53698;PMS7003;39591;53.952;27.612;2022-10-16T06:04:03;12.8;10;8.2
53698;PMS7003;39591;53.952;27.612;2022-10-16T06:08:59;12.5;10.1;8.1
53698;PMS7003;39591;53.952;27.612;2022-10-16T06:14:25;12.3;9.9;8
53698;PMS7003;39591;53.952;27.612;2022-10-16T06:19:25;11.5;9.1;7
53698;PMS7003;39591;53.952;27.612;2022-10-16T06:24:01;13.2;10.7;8.5
53698;PMS7003;39591;53.952;27.612;2022-10-16T06:29:25;12.8;9.8;8.1
53698;PMS7003;39591;53.952;27.612;2022-10-16T06:34:25;13.8;11.4;9.2
53698;PMS7003;39591;53.952;27.612;2022-10-16T06:38:39;11.8;9.6;7.5
53698;PMS7003;39591;53.952;27.612;2022-10-16T06:43:51;13.1;10.5;8.3
53698;PMS7003;39591;53.952;27.612;2022-10-16T06:48:38;13.6;11.2;8.7
53698;PMS7003;39591;53.952;27.612;2022-10-16T06:54:21;12.5;10.2;7.9
53698;PMS7003;39591;53.952;27.612;2022-10-16T06:59:13;13.2;10.7;8.6
53698;PMS7003;39591;53.952;27.612;2022-10-16T07:04:13;13.4;11.3;8.7
53698;PMS7003;39591;53.952;27.612;2022-10-16T07:09:15;13.6;11.4;9.2
53698;PMS7003;39591;53.952;27.612;2022-10-16T07:14:12;14.5;11.4;9.1
53698;PMS7003;39591;53.952;27.612;2022-10-16T07:19:14;13.1;9.7;7.7
53698;PMS7003;39591;53.952;27.612;2022-10-16T07:24:12;14;11.2;8.9
53698;PMS7003;39591;53.952;27.612;2022-10-16T07:29:23;13;10.6;8.4
53698;PMS7003;39591;53.952;27.612;2022-10-16T07:33:38;14;11.4;9.2
53698;PMS7003;39591;53.952;27.612;2022-10-16T07:38:51;14.5;12.4;9.4
53698;PMS7003;39591;53.952;27.612;2022-10-16T07:43:52;14.4;12.1;9.3
53698;PMS7003;39591;53.952;27.612;2022-10-16T07:49:23;13.6;11.6;8.7
53698;PMS7003;39591;53.952;27.612;2022-10-16T07:54:25;14.8;11.7;9
53698;PMS7003;39591;53.952;27.612;2022-10-16T07:59:01;15.1;12.8;9.5
53698;PMS7003;39591;53.952;27.612;2022-10-16T08:04:25;13.7;11.7;8.9
53698;PMS7003;39591;53.952;27.612;2022-10-16T08:09:11;14.2;11.9;8.8
53698;PMS7003;39591;53.952;27.612;2022-10-16T08:13:51;14.5;12.3;9.1
53698;PMS7003;39591;53.952;27.612;2022-10-16T08:19:02;13.6;11.9;8.5
53698;PMS7003;39591;53.952;27.612;2022-10-16T08:23:52;13.2;11.7;8.9
53698;PMS7003;39591;53.952;27.612;2022-10-16T08:28:49;14.4;11.7;8.8
53698;PMS7003;39591;53.952;27.612;2022-10-16T08:34:11;15.8;12.7;9.6
53698;PMS7003;39591;53.952;27.612;2022-10-16T08:38:38;14.8;12.7;10.3
53698;PMS7003;39591;53.952;27.612;2022-10-16T08:44:19;14.1;12.5;9.6
53698;PMS7003;39591;53.952;27.612;2022-10-16T08:48:41;15.9;13.6;10.3
53698;PMS7003;39591;53.952;27.612;2022-10-16T08:53:43;15;12.6;9.6
53698;PMS7003;39591;53.952;27.612;2022-10-16T08:59:01;15.5;12.7;10.3
53698;PMS7003;39591;53.952;27.612;2022-10-16T09:04:22;17.7;14.1;11.1
53698;PMS7003;39591;53.952;27.612;2022-10-16T09:09:29;15.6;13.3;10.3
53698;PMS7003;39591;53.952;27.612;2022-10-16T09:13:40;16.6;13.4;10.3
53698;PMS7003;39591;53.952;27.612;2022-10-16T09:18:39;16.3;13.7;10.2
53698;PMS7003;39591;53.952;27.612;2022-10-16T09:23:38;15.6;12.9;9.7
53698;PMS7003;39591;53.952;27.612;2022-10-16T09:29:12;16.9;13.9;11.1
53698;PMS7003;39591;53.952;27.612;2022-10-16T09:34:02;15.4;13.9;10.9
53698;PMS7003;39591;53.952;27.612;2022-10-16T09:39:07;18;14.7;10.9
53698;PMS7003;39591;53.952;27.612;2022-10-16T09:44:16;15;12.3;9.8
53698;PMS7003;39591;53.952;27.612;2022-10-16T09:49:20;14.7;12.8;9.9
53698;PMS7003;39591;53.952;27.612;2022-10-16T09:54:14;16;13.6;10.4
53698;PMS7003;39591;53.952;27.612;2022-10-16T09:59:25;16.5;13.7;10.4
53698;PMS7003;39591;53.952;27.612;2022-10-16T10:03:38;14.8;12.6;10.1
53698;PMS7003;39591;53.952;27.612;2022-10-16T10:08:37;15.4;13.1;10.2
53698;PMS7003;39591;53.952;27.612;2022-10-16T10:14:02;17;13.8;10.2
53698;PMS7003;39591;53.952;27.612;2022-10-16T10:19:26;15.4;13.3;10.3
53698;PMS7003;39591;53.952;27.612;2022-10-16T10:24:27;15.5;12.9;10
53698;PMS7003;39591;53.952;27.612;2022-10-16T10:29:04;14.6;12.2;9.7
53698;PMS7003;39591;53.952;27.612;2022-10-16T10:34:31;15.4;13.1;10.4
53698;PMS7003;39591;53.952;27.612;2022-10-16T10:39:16;14.8;11.8;9.3
53698;PMS7003;39591;53.952;27.612;2022-10-16T10:43:55;14;11.9;9.4
53698;PMS7003;39591;53.952;27.612;2022-10-16T10:49:06;15.1;12.1;9.2
53698;PMS7003;39591;53.952;27.612;2022-10-16T10:54:06;14.1;11.8;9.3
53698;PMS7003;39591;53.952;27.612;2022-10-16T10:59:02;13.1;10.9;7.9
53698;PMS7003;39591;53.952;27.612;2022-10-16T11:04:19;15.3;13;10.3
53698;PMS7003;39591;53.952;27.612;2022-10-16T11:08:39;13.1;11;8.6
53698;PMS7003;39591;53.952;27.612;2022-10-16T11:14:25;13.2;11.2;8.8
53698;PMS7003;39591;53.952;27.612;2022-10-16T11:19:31;13.3;11.3;9
53698;PMS7003;39591;53.952;27.612;2022-10-16T11:24:04;12.4;10.8;8.6
53698;PMS7003;39591;53.952;27.612;2022-10-16T11:29:04;12;10.5;8.3
53698;PMS7003;39591;53.952;27.612;2022-10-16T11:34:27;12.7;10.5;8.2
53698;PMS7003;39591;53.952;27.612;2022-10-16T11:39:24;13;10.9;8.6
53698;PMS7003;39591;53.952;27.612;2022-10-16T11:43:52;11.4;10.2;7.8
53698;PMS7003;39591;53.952;27.612;2022-10-16T11:48:53;12.7;10.9;8.7
53698;PMS7003;39591;53.952;27.612;2022-10-16T11:53:53;12.7;11;8.4
53698;PMS7003;39591;53.952;27.612;2022-10-16T11:59:15;12.7;10.8;8.2
53698;PMS7003;39591;53.952;27.612;2022-10-16T12:04:16;11.5;9.8;8
53698;PMS7003;39591;53.952;27.612;2022-10-16T12:09:02;11.6;10.2;8.3
53698;PMS7003;39591;53.952;27.612;2022-10-16T12:14:19;12.3;10.1;8.1
53698;PMS7003;39591;53.952;27.612;2022-10-16T12:19:19;10.9;9.3;7.1
53698;PMS7003;39591;53.952;27.612;2022-10-16T12:23:46;11.1;9.4;7.6
53698;PMS7003;39591;53.952;27.612;2022-10-16T12:29:14;11;8.9;7.2
53698;PMS7003;39591;53.952;27.612;2022-10-16T12:34:27;11.2;9.2;7.4
53698;PMS7003;39591;53.952;27.612;2022-10-16T12:38:38;11.3;9.4;7.7
53698;PMS7003;39591;53.952;27.612;2022-10-16T12:43:52;9.8;9.1;7.2
53698;PMS7003;39591;53.952;27.612;2022-10-16T12:49:29;10.2;8.1;6.5
53698;PMS7003;39591;53.952;27.612;2022-10-16T12:54:17;11.9;9.9;7.9
53698;PMS7003;39591;53.952;27.612;2022-10-16T12:59:22;12.5;10.8;8.5
53698;PMS7003;39591;53.952;27.612;2022-10-16T13:04:21;11.4;9.6;7.5
53698;PMS7003;39591;53.952;27.612;2022-10-16T13:09:20;11.4;9.2;7.5
53698;PMS7003;39591;53.952;27.612;2022-10-16T13:14:26;10.5;9;7.6
53698;PMS7003;39591;53.952;27.612;2022-10-16T13:19:00;10.2;8.6;6.7
53698;PMS7003;39591;53.952;27.612;2022-10-16T13:23:45;11.7;10.3;7.9
53698;PMS7003;39591;53.952;27.612;2022-10-16T13:29:04;11.8;9.9;8.1
53698;PMS7003;39591;53.952;27.612;2022-10-16T13:34:14;11.8;8.5;6.6
53698;PMS7003;39591;53.952;27.612;2022-10-16T13:39:09;9.9;8.6;6.7
53698;PMS7003;39591;53.952;27.612;2022-10-16T13:43:49;10.3;9.2;7.5
53698;PMS7003;39591;53.952;27.612;2022-10-16T13:49:28;8.5;7.7;6.1
53698;PMS7003;39591;53.952;27.612;2022-10-16T13:54:28;10.1;8.1;6.7
53698;PMS7003;39591;53.952;27.612;2022-10-16T13:59:07;9.7;7.5;6
53698;PMS7003;39591;53.952;27.612;2022-10-16T14:04:24;8.6;7.6;5.8
53698;PMS7003;39591;53.952;27.612;2022-10-16T14:09:29;9.7;8.5;6.7
53698;PMS7003;39591;53.952;27.612;2022-10-16T14:14:31;8.7;7.8;6.4
53698;PMS7003;39591;53.952;27.612;2022-10-16T14:18:54;10.3;7.9;6.6
53698;PMS7003;39591;53.952;27.612;2022-10-16T14:24:10;8.1;6.8;5.9
53698;PMS7003;39591;53.952;27.612;2022-10-16T14:29:24;10.1;8.3;6.8
53698;PMS7003;39591;53.952;27.612;2022-10-16T14:34:29;10.8;9;7
53698;PMS7003;39591;53.952;27.612;2022-10-16T14:39:04;9.6;8.3;6.4
53698;PMS7003;39591;53.952;27.612;2022-10-16T14:44:16;8.7;7.7;6
53698;PMS7003;39591;53.952;27.612;2022-10-16T14:49:15;9.3;7.9;6.6
53698;PMS7003;39591;53.952;27.612;2022-10-16T14:53:38;8.7;7.3;5.9
53698;PMS7003;39591;53.952;27.612;2022-10-16T14:59:13;7.8;6.5;5.3
53698;PMS7003;39591;53.952;27.612;2022-10-16T15:04:28;8.1;6.9;5.5
53698;PMS7003;39591;53.952;27.612;2022-10-16T15:08:52;7.3;6;5.2
53698;PMS7003;39591;53.952;27.612;2022-10-16T15:13:52;8.9;7.3;5.8
53698;PMS7003;39591;53.952;27.612;2022-10-16T15:19:28;10.5;8.1;6.5
53698;PMS7003;39591;53.952;27.612;2022-10-16T15:24:18;10.6;8.6;6.7
53698;PMS7003;39591;53.952;27.612;2022-10-16T15:29:26;11.1;9.4;7.3
53698;PMS7003;39591;53.952;27.612;2022-10-16T15:34:14;10.8;8.8;6.7
53698;PMS7003;39591;53.952;27.612;2022-10-16T15:39:16;11.3;9.2;7.2
53698;PMS7003;39591;53.952;27.612;2022-10-16T15:44:26;12.3;10;8
53698;PMS7003;39591;53.952;27.612;2022-10-16T15:49:02;9.8;8;6.2
53698;PMS7003;39591;53.952;27.612;2022-10-16T15:54:02;12.1;10.4;8.2
53698;PMS7003;39591;53.952;27.612;2022-10-16T15:58:52;13.3;10.9;8.7
53698;PMS7003;39591;53.952;27.612;2022-10-16T16:03:54;13.7;11.3;8.6
53698;PMS7003;39591;53.952;27.612;2022-10-16T16:08:48;14.8;12.5;9.5
53698;PMS7003;39591;53.952;27.612;2022-10-16T16:14:02;12.6;11.1;8.6
53698;PMS7003;39591;53.952;27.612;2022-10-16T16:19:26;12.3;9.8;7.6
53698;PMS7003;39591;53.952;27.612;2022-10-16T16:24:24;12.1;9.9;7.4
53698;PMS7003;39591;53.952;27.612;2022-10-16T16:29:03;11.2;9.3;7.3
53698;PMS7003;39591;53.952;27.612;2022-10-16T16:34:26;12.3;10.2;7.4
53698;PMS7003;39591;53.952;27.612;2022-10-16T16:39:14;14.4;11.4;8.4
53698;PMS7003;39591;53.952;27.612;2022-10-16T16:44:24;11.2;9.3;7.7
53698;PMS7003;39591;53.952;27.612;2022-10-16T16:48:48;11.5;9.5;7.5
53698;PMS7003;39591;53.952;27.612;2022-10-16T16:54:14;11.9;9;7.1
53698;PMS7003;39591;53.952;27.612;2022-10-16T16:58:52;10.4;8.3;6.8
53698;PMS7003;39591;53.952;27.612;2022-10-16T17:04:12;9.5;8.4;6.7
53698;PMS7003;39591;53.952;27.612;2022-10-16T17:09:00;9.5;7.9;6.3
53698;PMS7003;39591;53.952;27.612;2022-10-16T17:14:16;10;8.1;6.4
53698;PMS7003;39591;53.952;27.612;2022-10-16T17:19:10;9.2;7.9;6.4
53698;PMS7003;39591;53.952;27.612;2022-10-16T17:24:10;9.7;7.7;5.9
53698;PMS7003;39591;53.952;27.612;2022-10-16T17:29:14;9.3;7.9;6.1
53698;PMS7003;39591;53.952;27.612;2022-10-16T17:34:24;8.7;7;5.9
53698;PMS7003;39591;53.952;27.612;2022-10-16T17:38:52;8.4;6.6;5.4
53698;PMS7003;39591;53.952;27.612;2022-10-16T17:43:38;9.6;7.8;6.3
53698;PMS7003;39591;53.952;27.612;2022-10-16T17:48:38;9.2;7.7;6.2
53698;PMS7003;39591;53.952;27.612;2022-10-16T17:54:00;8.6;7;5.7
53698;PMS7003;39591;53.952;27.612;2022-10-16T17:59:24;8.6;7.2;6.2
53698;PMS7003;39591;53.952;27.612;2022-10-16T18:04:03;9.2;7.8;6.2
53698;PMS7003;39591;53.952;27.612;2022-10-16T18:09:22;8.6;7.7;6.4
53698;PMS7003;39591;53.952;27.612;2022-10-16T18:14:12;8.2;7.5;6.1
53698;PMS7003;39591;53.952;27.612;2022-10-16T18:19:02;8.5;7.6;6.4
53698;PMS7003;39591;53.952;27.612;2022-10-16T18:23:52;9.4;7.6;6.1
53698;PMS7003;39591;53.952;27.612;2022-10-16T18:28:52;7.6;6.3;5.2
53698;PMS7003;39591;53.952;27.612;2022-10-16T18:33:54;9.4;7.2;6.1
53698;PMS7003;39591;53.952;27.612;2022-10-16T18:38:38;10;8.2;6.4
53698;PMS7003;39591;53.952;27.612;2022-10-16T18:43:52;11.5;9;7.1
53698;PMS7003;39591;53.952;27.612;2022-10-16T18:49:26;10.6;8.9;7.2
53698;PMS7003;39591;53.952;27.612;2022-10-16T18:54:14;8.7;7.5;6.3
53698;PMS7003;39591;53.952;27.612;2022-10-16T18:59:02;10.1;8.3;6.5
53698;PMS7003;39591;53.952;27.612;2022-10-16T19:04:02;11;7.9;6.5
53698;PMS7003;39591;53.952;27.612;2022-10-16T19:09:12;10;8.3;6.8
53698;PMS7003;39591;53.952;27.612;2022-10-16T19:14:24;9.5;8.1;6.7
53698;PMS7003;39591;53.952;27.612;2022-10-16T19:18:55;9.7;8.4;6.5
53698;PMS7003;39591;53.952;27.612;2022-10-16T19:23:52;9.7;8.3;6.9
53698;PMS7003;39591;53.952;27.612;2022-10-16T19:29:02;11.2;9.5;7.2
53698;PMS7003;39591;53.952;27.612;2022-10-16T19:34:16;9.9;7.9;6.1
53698;PMS7003;39591;53.952;27.612;2022-10-16T19:39:03;9.7;8.5;6.5
53698;PMS7003;39591;53.952;27.612;2022-10-16T19:44:22;9.9;8.5;6.6
53698;PMS7003;39591;53.952;27.612;2022-10-16T19:49:13;10.4;8.4;6.4
53698;PMS7003;39591;53.952;27.612;2022-10-16T19:54:14;9.2;8;6.6
53698;PMS7003;39591;53.952;27.612;2022-10-16T19:59:00;10;8.3;6.8
53698;PMS7003;39591;53.952;27.612;2022-10-16T20:04:26;9.1;7.8;6.2
53698;PMS7003;39591;53.952;27.612;2022-10-16T20:08:52;8.7;6.7;5.4
53698;PMS7003;39591;53.952;27.612;2022-10-16T20:13:38;9.4;8.2;6.7
53698;PMS7003;39591;53.952;27.612;2022-10-16T20:18:52;9.8;7.8;6.4
53698;PMS7003;39591;53.952;27.612;2022-10-16T20:24:24;9.4;8.2;6.6
53698;PMS7003;39591;53.952;27.612;2022-10-16T20:29:24;10.1;8.6;6.8
53698;PMS7003;39591;53.952;27.612;2022-10-16T20:34:03;8.8;7.8;6.1
53698;PMS7003;39591;53.952;27.612;2022-10-16T20:39:28;9.9;8.7;7
53698;PMS7003;39591;53.952;27.612;2022-10-16T20:44:14;10.8;8.5;7
53698;PMS7003;39591;53.952;27.612;2022-10-16T20:49:04;10.8;8.7;7.1
53698;PMS7003;39591;53.952;27.612;2022-10-16T20:54:04;11.9;9.7;7.3
53698;PMS7003;39591;53.952;27.612;2022-10-16T20:58:52;15.4;12.8;9.5
53698;PMS7003;39591;53.952;27.612;2022-10-16T21:03:38;9.5;8.1;6.6
53698;PMS7003;39591;53.952;27.612;2022-10-16T21:08:39;10.7;8.2;6.8
53698;PMS7003;39591;53.952;27.612;2022-10-16T21:14:04;9.7;8;6.4
53698;PMS7003;39591;53.952;27.612;2022-10-16T21:18:38;9.4;7.9;6.3
53698;PMS7003;39591;53.952;27.612;2022-10-16T21:24:26;9.8;8.5;6.8
53698;PMS7003;39591;53.952;27.612;2022-10-16T21:29:14;9.9;8.4;7.2
53698;PMS7003;39591;53.952;27.612;2022-10-16T21:34:02;10.3;8.6;6.5
53698;PMS7003;39591;53.952;27.612;2022-10-16T21:39:26;11.5;8.8;6.9
53698;PMS7003;39591;53.952;27.612;2022-10-16T21:44:14;9.7;8.3;6.8
53698;PMS7003;39591;53.952;27.612;2022-10-16T21:49:28;9.4;8.3;6.5
53698;PMS7003;39591;53.952;27.612;2022-10-16T21:53:52;8.5;7.1;5.8
53698;PMS7003;39591;53.952;27.612;2022-10-16T21:58:50;10.3;8.8;6.6
53698;PMS7003;39591;53.952;27.612;2022-10-16T22:04:28;10.1;7.9;6.7
53698;PMS7003;39591;53.952;27.612;2022-10-16T22:09:14;11.7;8.8;6.9
53698;PMS7003;39591;53.952;27.612;2022-10-16T22:14:00;10.6;8.1;6.6
53698;PMS7003;39591;53.952;27.612;2022-10-16T22:19:06;8.7;7.2;6.3
53698;PMS7003;39591;53.952;27.612;2022-10-16T22:23:40;10;8.6;7.1
53698;PMS7003;39591;53.952;27.612;2022-10-16T22:28:53;8.9;8.2;6.6
53698;PMS7003;39591;53.952;27.612;2022-10-16T22:34:14;10.4;8.3;6.6
53698;PMS7003;39591;53.952;27.612;2022-10-16T22:39:22;9.3;8.2;6.6
53698;PMS7003;39591;53.952;27.612;2022-10-16T22:43:52;8.5;7.2;5.7
53698;PMS7003;39591;53.952;27.612;2022-10-16T22:48:52;10.4;8.2;6.4
53698;PMS7003;39591;53.952;27.612;2022-10-16T22:54:26;10.3;8.5;6.9
53698;PMS7003;39591;53.952;27.612;2022-10-16T22:59:14;10.4;8.3;6.7
53698;PMS7003;39591;53.952;27.612;2022-10-16T23:04:22;11.3;8.8;6.8
53698;PMS7003;39591;53.952;27.612;2022-10-16T23:09:02;10.9;7.9;6.6
53698;PMS7003;39591;53.952;27.612;2022-10-16T23:14:18;10.1;8.5;6.8
53698;PMS7003;39591;53.952;27.612;2022-10-16T23:19:24;10.9;9.3;7.3
53698;PMS7003;39591;53.952;27.612;2022-10-16T23:23:38;11.1;8.5;6.7
53698;PMS7003;39591;53.952;27.612;2022-10-16T23:28:44;11.2;9.4;7.2
53698;PMS7003;39591;53.952;27.612;2022-10-16T23:33:38;10.9;9;7.2
53698;PMS7003;39591;53.952;27.612;2022-10-16T23:39:02;10.1;8.3;6.6
53698;PMS7003;39591;53.952;27.612;2022-10-16T23:44:00;13.1;10.2;8.1
53698;PMS7003;39591;53.952;27.612;2022-10-16T23:49:02;12.3;10.7;7.6
53698;PMS7003;39591;53.952;27.612;2022-10-16T23:54:20;11.8;10;8
53698;PMS7003;39591;53.952;27.612;2022-10-16T23:59:20;11.8;9.8;7.6
